createdAt,value
2023-02-08T00:01:08.871Z,47.50
2023-02-08T00:03:36.942Z,48.39
2023-02-08T00:06:06.173Z,48.63
2023-02-08T00:08:34.866Z,49.20
2023-02-08T00:11:02.892Z,47.46
2023-02-08T00:13:31.111Z,46.60
2023-02-08T00:15:59.246Z,47.40
2023-02-08T00:18:27.363Z,48.41
2023-02-08T00:20:57.391Z,48.87
2023-02-08T00:23:25.638Z,49.56
2023-02-08T00:25:53.719Z,48.60
2023-02-08T00:28:21.647Z,49.12
2023-02-08T00:30:50.012Z,49.03
2023-02-08T00:33:18.172Z,49.82
2023-02-08T00:35:46.396Z,49.59
2023-02-08T00:38:14.374Z,49.74
2023-02-08T00:40:42.833Z,49.45
2023-02-08T00:43:10.908Z,48.52
2023-02-08T00:45:39.291Z,49.78
2023-02-08T00:48:07.353Z,50.20
2023-02-08T00:50:35.340Z,51.42
2023-02-08T00:53:04.246Z,51.44
2023-02-08T00:55:32.297Z,51.91
2023-02-08T00:58:00.281Z,51.27
2023-02-08T01:00:28.374Z,51.42
2023-02-08T01:02:56.465Z,50.02
2023-02-08T01:05:25.029Z,51.42
2023-02-08T01:07:53.244Z,53.20
2023-02-08T01:10:21.501Z,53.74
2023-02-08T01:12:49.477Z,52.67
2023-02-08T01:15:17.458Z,51.84
2023-02-08T01:17:45.495Z,51.77
2023-02-08T01:20:13.463Z,52.14
2023-02-08T01:22:41.564Z,52.79
2023-02-08T01:25:09.840Z,52.92
2023-02-08T01:27:37.944Z,51.78
2023-02-08T01:30:06.491Z,50.45
2023-02-08T01:32:36.537Z,49.92
2023-02-08T01:35:04.830Z,49.52
2023-02-08T01:37:32.992Z,50.13
2023-02-08T01:40:01.224Z,49.03
2023-02-08T01:42:29.172Z,50.02
2023-02-08T01:45:15.719Z,49.68
2023-02-08T01:47:45.533Z,49.21
2023-02-08T01:50:15.223Z,49.55
2023-02-08T01:52:43.956Z,50.38
2023-02-08T01:55:16.194Z,50.20
2023-02-08T01:57:45.412Z,49.57
2023-02-08T02:00:22.376Z,48.24
2023-02-08T02:02:53.596Z,47.57
2023-02-08T02:05:23.931Z,48.56
2023-02-08T02:07:55.922Z,49.54
2023-02-08T02:10:23.896Z,51.37
2023-02-08T02:12:52.536Z,49.63
2023-02-08T02:15:20.800Z,49.73
2023-02-08T02:17:48.921Z,50.76
2023-02-08T02:20:17.243Z,50.22
2023-02-08T02:23:03.744Z,50.08
2023-02-08T02:25:50.149Z,51.76
2023-02-08T02:28:27.494Z,51.86
2023-02-08T02:30:55.626Z,51.44
2023-02-08T02:33:29.946Z,49.88
2023-02-08T02:36:13.469Z,51.11
2023-02-08T02:38:41.541Z,50.08
2023-02-08T02:41:43.372Z,50.32
2023-02-08T02:44:37.975Z,52.40
2023-02-08T02:47:24.687Z,53.20
2023-02-08T02:50:12.200Z,50.88
2023-02-08T02:52:46.435Z,51.33
2023-02-08T02:55:20.842Z,50.27
2023-02-08T02:57:50.175Z,50.17
2023-02-08T03:00:23.217Z,50.32
2023-02-08T03:02:51.351Z,51.27
2023-02-08T03:05:19.452Z,51.30
2023-02-08T03:07:53.288Z,51.25
2023-02-08T03:10:27.357Z,51.57
2023-02-08T03:13:01.509Z,51.55
2023-02-08T03:15:52.695Z,52.03
2023-02-08T03:18:20.793Z,50.10
2023-02-08T03:20:58.155Z,49.02
2023-02-08T03:23:31.544Z,50.64
2023-02-08T03:26:05.552Z,48.97
2023-02-08T03:28:36.530Z,49.23
2023-02-08T03:31:07.785Z,49.00
2023-02-08T03:33:40.755Z,50.15
2023-02-08T03:36:14.400Z,50.82
2023-02-08T03:38:44.298Z,52.85
2023-02-08T03:41:15.341Z,52.14
2023-02-08T03:43:48.100Z,52.49
2023-02-08T03:46:24.895Z,52.67
2023-02-08T03:48:56.928Z,51.37
2023-02-08T03:51:26.323Z,49.81
2023-02-08T03:53:55.722Z,49.30
2023-02-08T03:56:46.641Z,49.49
2023-02-08T03:59:22.765Z,48.44
2023-02-08T04:01:57.869Z,48.67
2023-02-08T04:04:29.477Z,48.07
2023-02-08T04:06:57.747Z,48.82
2023-02-08T04:09:25.922Z,49.12
2023-02-08T04:11:54.118Z,49.45
2023-02-08T04:14:22.140Z,49.77
2023-02-08T04:16:50.753Z,50.84
2023-02-08T04:19:18.912Z,49.90
2023-02-08T04:21:46.985Z,50.10
2023-02-08T04:24:14.975Z,49.36
2023-02-08T04:27:00.434Z,49.80
2023-02-08T04:29:28.597Z,51.27
2023-02-08T04:31:56.620Z,49.42
2023-02-08T04:34:24.749Z,49.52
2023-02-08T04:36:52.915Z,50.61
2023-02-08T04:39:20.988Z,49.98
2023-02-08T04:41:49.221Z,49.66
2023-02-08T04:44:17.438Z,49.98
2023-02-08T04:46:45.438Z,49.48
2023-02-08T04:49:13.702Z,50.06
2023-02-08T04:51:42.198Z,48.55
2023-02-08T04:54:10.338Z,50.49
2023-02-08T04:56:38.810Z,48.54
2023-02-08T04:59:06.989Z,49.69
2023-02-08T05:01:35.510Z,49.92
2023-02-08T05:04:03.692Z,49.97
2023-02-08T05:06:31.776Z,51.84
2023-02-08T05:08:59.965Z,51.69
2023-02-08T05:11:28.995Z,51.72
2023-02-08T05:13:57.149Z,51.97
2023-02-08T05:16:25.715Z,51.11
2023-02-08T05:18:55.736Z,50.64
2023-02-08T05:21:24.064Z,50.83
2023-02-08T05:23:52.517Z,51.19
2023-02-08T05:26:21.018Z,51.80
2023-02-08T05:28:49.559Z,52.60
2023-02-08T05:31:19.936Z,51.57
2023-02-08T05:33:48.866Z,51.56
2023-02-08T05:36:17.647Z,51.41
2023-02-08T05:38:45.664Z,51.89
2023-02-08T05:41:13.794Z,53.53
2023-02-08T05:43:41.916Z,53.06
2023-02-08T05:46:10.117Z,52.89
2023-02-08T05:48:38.676Z,52.52
2023-02-08T05:51:06.984Z,51.69
2023-02-08T05:53:35.161Z,50.38
2023-02-08T05:56:03.234Z,49.38
2023-02-08T05:58:31.333Z,48.92
2023-02-08T06:00:59.468Z,47.56
2023-02-08T06:03:27.752Z,47.76
2023-02-08T06:05:59.970Z,47.20
2023-02-08T06:08:45.413Z,46.13
2023-02-08T06:11:13.835Z,45.52
2023-02-08T06:13:41.880Z,45.78
2023-02-08T06:16:10.057Z,44.97
2023-02-08T06:18:38.162Z,42.88
2023-02-08T06:21:06.752Z,42.83
2023-02-08T06:23:34.948Z,40.15
2023-02-08T06:26:02.967Z,40.01
2023-02-08T06:28:30.947Z,39.07
2023-02-08T06:30:59.553Z,39.31
2023-02-08T06:33:27.534Z,38.77
2023-02-08T06:35:55.541Z,38.52
2023-02-08T06:38:23.676Z,38.01
2023-02-08T06:40:51.943Z,37.04
2023-02-08T06:43:20.302Z,36.93
2023-02-08T06:45:48.525Z,36.00
2023-02-08T06:48:16.771Z,34.36
2023-02-08T06:50:44.981Z,33.05
2023-02-08T06:53:13.250Z,33.24
2023-02-08T06:55:41.187Z,33.87
2023-02-08T06:58:09.921Z,32.53
2023-02-08T07:00:39.427Z,32.35
2023-02-08T07:03:07.745Z,31.51
2023-02-08T07:05:36.240Z,30.94
2023-02-08T07:08:04.944Z,30.21
2023-02-08T07:10:32.901Z,30.35
2023-02-08T07:13:02.180Z,30.09
2023-02-08T07:15:31.150Z,30.54
2023-02-08T07:17:59.236Z,29.73
2023-02-08T07:20:27.309Z,29.77
2023-02-08T07:22:55.497Z,29.79
2023-02-08T07:25:23.652Z,29.83
2023-02-08T07:27:52.211Z,29.67
2023-02-08T07:30:20.315Z,29.63
2023-02-08T07:32:48.580Z,29.48
2023-02-08T07:35:16.750Z,29.61
2023-02-08T07:37:44.823Z,29.30
2023-02-08T07:40:12.861Z,28.89
2023-02-08T07:42:40.885Z,29.21
2023-02-08T07:45:16.544Z,29.32
2023-02-08T07:47:46.529Z,29.34
2023-02-08T07:50:16.404Z,29.58
2023-02-08T07:52:46.251Z,29.85
2023-02-08T07:55:18.780Z,30.19
2023-02-08T07:57:48.353Z,30.59
2023-02-08T08:00:17.972Z,31.00
2023-02-08T08:02:46.272Z,32.32
2023-02-08T08:05:14.903Z,33.68
2023-02-08T08:07:43.278Z,36.79
2023-02-08T08:10:11.448Z,37.29
2023-02-08T08:12:39.535Z,38.16
2023-02-08T08:15:07.870Z,37.54
2023-02-08T08:17:36.184Z,37.75
2023-02-08T08:20:04.162Z,38.97
2023-02-08T08:22:32.619Z,38.46
2023-02-08T08:25:00.647Z,39.05
2023-02-08T08:27:28.761Z,39.08
2023-02-08T08:29:56.689Z,38.89
2023-02-08T08:32:24.697Z,39.64
2023-02-08T08:34:53.035Z,40.68
2023-02-08T08:37:21.105Z,40.12
2023-02-08T08:39:49.855Z,43.94
2023-02-08T08:42:18.142Z,45.15
2023-02-08T08:44:46.379Z,44.68
2023-02-08T08:47:32.170Z,43.78
2023-02-08T08:50:00.359Z,43.17
2023-02-08T08:52:28.820Z,44.18
2023-02-08T08:54:56.989Z,43.58
2023-02-08T08:57:24.949Z,42.53
2023-02-08T08:59:53.035Z,42.49
2023-02-08T09:02:21.305Z,41.23
2023-02-08T09:04:49.445Z,40.78
2023-02-08T09:07:17.633Z,40.68
2023-02-08T09:09:48.184Z,39.66
2023-02-08T09:12:16.578Z,39.37
2023-02-08T09:14:47.658Z,38.76
2023-02-08T09:17:15.771Z,36.67
2023-02-08T09:19:43.831Z,37.54
2023-02-08T09:22:11.799Z,37.54
2023-02-08T09:24:58.785Z,36.82
2023-02-08T09:27:27.239Z,37.05
2023-02-08T09:29:55.501Z,37.14
2023-02-08T09:32:23.637Z,37.10
2023-02-08T09:34:51.561Z,36.37
2023-02-08T09:37:19.787Z,36.13
2023-02-08T09:39:49.321Z,36.44
2023-02-08T09:42:40.801Z,36.65
2023-02-08T09:45:28.051Z,36.44
2023-02-08T09:48:15.748Z,35.95
2023-02-08T09:50:49.362Z,35.77
2023-02-08T09:53:23.888Z,36.31
2023-02-08T09:55:58.519Z,36.63
2023-02-08T09:58:33.690Z,36.79
2023-02-08T10:01:03.576Z,36.37
2023-02-08T10:03:45.162Z,36.03
2023-02-08T10:06:15.135Z,36.45
2023-02-08T10:08:44.465Z,36.47
2023-02-08T10:11:24.912Z,36.53
2023-02-08T10:14:13.385Z,36.40
2023-02-08T10:16:48.089Z,36.51
2023-02-08T10:19:33.560Z,36.48
2023-02-08T10:22:20.177Z,36.37
2023-02-08T10:25:06.833Z,35.97
2023-02-08T10:27:42.500Z,36.16
2023-02-08T10:30:33.705Z,36.54
2023-02-08T10:33:03.089Z,36.58
2023-02-08T10:35:45.141Z,36.21
2023-02-08T10:38:19.683Z,35.79
2023-02-08T10:40:49.270Z,35.77
2023-02-08T10:43:17.441Z,36.31
2023-02-08T10:46:00.981Z,36.08
2023-02-08T10:48:38.774Z,35.86
2023-02-08T10:51:08.378Z,35.41
2023-02-08T10:53:38.905Z,36.28
2023-02-08T10:56:07.890Z,35.23
2023-02-08T10:58:36.778Z,35.78
2023-02-08T11:01:05.817Z,36.14
2023-02-08T11:03:38.575Z,36.21
2023-02-08T11:06:22.070Z,35.58
2023-02-08T11:08:59.231Z,35.48
2023-02-08T11:11:33.359Z,35.94
2023-02-08T11:14:16.642Z,35.43
2023-02-08T11:16:52.013Z,35.58
2023-02-08T11:19:28.204Z,34.75
2023-02-08T11:21:57.216Z,35.28
2023-02-08T11:24:36.040Z,35.68
2023-02-08T11:27:15.846Z,34.81
2023-02-08T11:29:44.900Z,34.83
2023-02-08T11:32:19.263Z,34.94
2023-02-08T11:34:47.559Z,33.79
2023-02-08T11:37:17.847Z,33.73
2023-02-08T11:39:50.061Z,33.89
2023-02-08T11:42:22.015Z,33.19
2023-02-08T11:44:51.000Z,33.48
2023-02-08T11:47:25.098Z,33.88
2023-02-08T11:49:55.274Z,33.20
2023-02-08T11:52:27.621Z,33.40
2023-02-08T11:55:11.342Z,33.17
2023-02-08T11:57:52.325Z,33.32
2023-02-08T12:00:26.523Z,33.10
2023-02-08T12:02:59.724Z,33.16
2023-02-08T12:05:43.688Z,32.62
2023-02-08T12:08:27.846Z,32.74
2023-02-08T12:11:14.759Z,33.01
2023-02-08T12:13:45.836Z,32.93
2023-02-08T12:16:20.365Z,33.20
2023-02-08T12:19:20.825Z,32.80
2023-02-08T12:21:58.137Z,32.97
2023-02-08T12:24:49.115Z,32.62
2023-02-08T12:27:20.009Z,32.93
2023-02-08T12:29:48.537Z,33.62
2023-02-08T12:32:17.072Z,33.54
2023-02-08T12:34:45.808Z,33.51
2023-02-08T12:37:53.389Z,33.23
2023-02-08T12:40:43.191Z,33.34
2023-02-08T12:43:27.396Z,33.28
2023-02-08T12:45:55.546Z,33.60
2023-02-08T12:48:42.190Z,33.98
2023-02-08T12:51:19.374Z,33.74
2023-02-08T12:53:52.093Z,32.96
2023-02-08T12:56:22.196Z,33.10
2023-02-08T12:58:55.033Z,33.80
2023-02-08T13:01:28.901Z,33.94
2023-02-08T13:04:00.024Z,34.33
2023-02-08T13:06:32.268Z,34.05
2023-02-08T13:09:05.869Z,32.98
2023-02-08T13:11:40.523Z,33.26
2023-02-08T13:14:43.996Z,33.00
2023-02-08T13:17:23.858Z,33.24
2023-02-08T13:20:00.428Z,33.48
2023-02-08T13:22:34.796Z,33.48
2023-02-08T13:25:08.582Z,33.06
2023-02-08T13:27:37.324Z,34.05
2023-02-08T13:30:06.535Z,34.38
2023-02-08T13:32:43.567Z,34.01
2023-02-08T13:35:21.056Z,34.36
2023-02-08T13:37:54.611Z,34.31
2023-02-08T13:40:30.984Z,33.63
2023-02-08T13:43:23.350Z,34.02
2023-02-08T13:45:59.486Z,34.04
2023-02-08T13:48:27.848Z,33.84
2023-02-08T13:50:57.360Z,34.16
2023-02-08T13:53:41.655Z,34.14
2023-02-08T13:56:11.078Z,34.06
2023-02-08T13:58:39.551Z,33.89
2023-02-08T14:01:19.508Z,33.81
2023-02-08T14:04:06.128Z,34.12
2023-02-08T14:06:36.368Z,34.25
2023-02-08T14:09:04.519Z,34.44
2023-02-08T14:11:43.344Z,34.50
2023-02-08T14:14:20.966Z,34.81
2023-02-08T14:17:04.378Z,34.72
2023-02-08T14:19:34.170Z,33.09
2023-02-08T14:22:03.802Z,33.73
2023-02-08T14:24:36.176Z,34.79
2023-02-08T14:27:09.256Z,34.42
2023-02-08T14:29:38.074Z,34.83
2023-02-08T14:32:06.229Z,34.59
2023-02-08T14:34:36.084Z,34.57
2023-02-08T14:37:19.264Z,35.25
2023-02-08T14:39:50.636Z,35.34
2023-02-08T14:42:37.497Z,35.05
2023-02-08T14:45:05.880Z,35.40
2023-02-08T14:47:35.923Z,35.45
2023-02-08T14:50:18.976Z,34.70
2023-02-08T14:52:55.167Z,35.14
2023-02-08T14:55:28.116Z,36.24
2023-02-08T14:57:58.072Z,36.88
2023-02-08T15:00:30.009Z,36.06
2023-02-08T15:02:58.442Z,35.77
2023-02-08T15:05:27.764Z,36.06
2023-02-08T15:07:57.624Z,36.09
2023-02-08T15:10:26.924Z,35.42
2023-02-08T15:12:57.870Z,36.13
2023-02-08T15:15:31.775Z,38.17
2023-02-08T15:18:01.572Z,38.84
2023-02-08T15:20:55.916Z,37.93
2023-02-08T15:23:24.607Z,38.59
2023-02-08T15:25:57.894Z,38.93
2023-02-08T15:28:29.036Z,38.86
2023-02-08T15:30:59.821Z,39.08
2023-02-08T15:33:28.281Z,38.71
2023-02-08T15:36:07.671Z,37.86
2023-02-08T15:38:38.801Z,37.75
2023-02-08T15:41:08.905Z,38.50
2023-02-08T15:43:37.774Z,38.66
2023-02-08T15:46:07.519Z,40.32
2023-02-08T15:48:36.375Z,39.57
2023-02-08T15:51:08.229Z,39.57
2023-02-08T15:53:36.631Z,38.77
2023-02-08T15:56:05.854Z,37.31
2023-02-08T15:58:35.984Z,37.68
2023-02-08T16:01:05.390Z,38.99
2023-02-08T16:03:35.251Z,39.70
2023-02-08T16:06:05.437Z,39.41
2023-02-08T16:08:35.526Z,40.53
2023-02-08T16:11:07.947Z,41.32
2023-02-08T16:13:37.424Z,41.66
2023-02-08T16:16:16.827Z,43.57
2023-02-08T16:18:50.149Z,42.68
2023-02-08T16:21:18.678Z,43.83
2023-02-08T16:23:51.686Z,45.62
2023-02-08T16:26:19.868Z,45.52
2023-02-08T16:28:56.091Z,43.94
2023-02-08T16:31:27.061Z,42.70
2023-02-08T16:34:03.900Z,43.33
2023-02-08T16:36:42.805Z,44.42
2023-02-08T16:39:13.655Z,44.82
2023-02-08T16:42:13.662Z,45.74
2023-02-08T16:44:58.132Z,45.91
2023-02-08T16:47:28.183Z,46.88
2023-02-08T16:49:56.153Z,47.64
2023-02-08T16:52:24.162Z,45.26
2023-02-08T16:54:52.174Z,47.54
2023-02-08T16:57:20.336Z,46.98
2023-02-08T16:59:48.403Z,47.69
2023-02-08T17:02:16.467Z,47.44
2023-02-08T17:04:44.690Z,46.92
2023-02-08T17:07:18.445Z,46.10
2023-02-08T17:09:46.523Z,45.35
2023-02-08T17:12:24.557Z,46.64
2023-02-08T17:14:52.590Z,47.64
2023-02-08T17:17:21.518Z,45.61
2023-02-08T17:19:50.083Z,45.20
2023-02-08T17:22:18.336Z,44.44
2023-02-08T17:24:46.279Z,45.61
2023-02-08T17:27:14.278Z,44.19
2023-02-08T17:29:42.330Z,45.70
2023-02-08T17:32:10.321Z,44.25
2023-02-08T17:34:39.717Z,44.87
2023-02-08T17:37:08.817Z,44.80
2023-02-08T17:39:36.784Z,45.57
2023-02-08T17:42:04.825Z,44.89
2023-02-08T17:44:32.973Z,46.09
2023-02-08T17:47:01.298Z,46.30
2023-02-08T17:49:29.767Z,47.14
2023-02-08T17:51:58.247Z,45.44
2023-02-08T17:54:26.384Z,44.87
2023-02-08T17:56:58.628Z,44.65
2023-02-08T17:59:44.162Z,44.63
2023-02-08T18:02:12.142Z,45.22
2023-02-08T18:04:40.206Z,46.08
2023-02-08T18:07:08.366Z,45.35
2023-02-08T18:09:36.358Z,44.17
2023-02-08T18:12:04.270Z,43.45
2023-02-08T18:14:32.385Z,43.69
2023-02-08T18:17:00.431Z,44.38
2023-02-08T18:19:28.480Z,45.92
2023-02-08T18:21:57.327Z,44.19
2023-02-08T18:24:25.447Z,43.73
2023-02-08T18:26:53.429Z,44.11
2023-02-08T18:29:21.741Z,43.80
2023-02-08T18:31:50.176Z,43.51
2023-02-08T18:34:18.784Z,44.15
2023-02-08T18:36:47.636Z,43.62
2023-02-08T18:39:15.991Z,45.27
2023-02-08T18:41:44.216Z,45.75
2023-02-08T18:44:12.244Z,46.08
2023-02-08T18:46:40.506Z,45.31
2023-02-08T18:49:09.550Z,44.76
2023-02-08T18:51:37.464Z,45.06
2023-02-08T18:54:07.085Z,45.38
2023-02-08T18:56:35.424Z,45.20
2023-02-08T18:59:03.627Z,44.50
2023-02-08T19:01:31.994Z,45.48
2023-02-08T19:04:00.134Z,45.62
2023-02-08T19:06:28.806Z,46.44
2023-02-08T19:08:58.816Z,47.36
2023-02-08T19:11:29.047Z,47.37
2023-02-08T19:13:58.268Z,46.71
2023-02-08T19:16:27.741Z,47.96
2023-02-08T19:19:01.261Z,47.26
2023-02-08T19:21:29.873Z,46.76
2023-02-08T19:23:58.610Z,47.73
2023-02-08T19:26:37.126Z,47.66
2023-02-08T19:29:06.858Z,47.81
2023-02-08T19:31:35.267Z,48.21
2023-02-08T19:34:04.008Z,48.57
2023-02-08T19:36:36.271Z,47.50
2023-02-08T19:39:08.118Z,47.90
2023-02-08T19:41:38.111Z,47.98
2023-02-08T19:44:07.131Z,46.90
2023-02-08T19:46:38.761Z,47.04
2023-02-08T19:49:08.783Z,47.13
2023-02-08T19:51:37.584Z,46.89
2023-02-08T19:54:07.306Z,45.84
2023-02-08T19:56:35.714Z,46.17
2023-02-08T19:59:04.406Z,46.35
2023-02-08T20:01:36.358Z,47.06
2023-02-08T20:04:05.866Z,46.88
2023-02-08T20:06:35.633Z,47.52
2023-02-08T20:09:04.774Z,47.29
2023-02-08T20:11:35.930Z,47.23
2023-02-08T20:14:06.352Z,47.92
2023-02-08T20:16:34.819Z,47.16
2023-02-08T20:19:03.345Z,48.20
2023-02-08T20:21:32.057Z,47.48
2023-02-08T20:24:01.248Z,47.27
2023-02-08T20:26:31.999Z,48.46
2023-02-08T20:29:00.348Z,49.99
2023-02-08T20:31:33.213Z,50.47
2023-02-08T20:34:03.503Z,50.17
2023-02-08T20:36:32.823Z,49.56
2023-02-08T20:39:00.732Z,50.51
2023-02-08T20:41:31.274Z,49.05
2023-02-08T20:43:59.294Z,49.17
2023-02-08T20:46:30.787Z,50.85
2023-02-08T20:49:00.197Z,50.19
2023-02-08T20:51:28.686Z,49.94
2023-02-08T20:53:57.638Z,48.91
2023-02-08T20:56:27.461Z,48.58
2023-02-08T20:58:55.627Z,49.57
2023-02-08T21:01:25.351Z,50.49
2023-02-08T21:03:54.837Z,50.21
2023-02-08T21:06:24.280Z,49.01
2023-02-08T21:08:55.411Z,49.36
2023-02-08T21:11:25.394Z,50.25
2023-02-08T21:13:54.395Z,49.30
2023-02-08T21:16:23.192Z,49.23
2023-02-08T21:18:51.654Z,50.21
2023-02-08T21:21:22.185Z,50.88
2023-02-08T21:23:50.400Z,50.51
2023-02-08T21:26:19.657Z,50.51
2023-02-08T21:28:48.445Z,51.11
2023-02-08T21:31:18.206Z,50.21
2023-02-08T21:33:46.629Z,49.15
2023-02-08T21:36:15.764Z,48.80
2023-02-08T21:38:44.225Z,48.65
2023-02-08T21:41:17.032Z,48.82
2023-02-08T21:43:45.160Z,49.92
2023-02-08T21:46:13.690Z,49.33
2023-02-08T21:49:00.394Z,48.78
2023-02-08T21:51:46.818Z,49.65
2023-02-08T21:54:35.362Z,49.57
2023-02-08T21:57:04.512Z,48.69
2023-02-08T21:59:37.645Z,48.25
2023-02-08T22:02:07.158Z,47.48
2023-02-08T22:04:35.638Z,47.96
2023-02-08T22:07:07.000Z,48.96
2023-02-08T22:09:36.709Z,49.68
2023-02-08T22:12:05.085Z,50.04
2023-02-08T22:14:36.032Z,51.49
2023-02-08T22:17:04.099Z,51.79
2023-02-08T22:19:32.412Z,50.60
2023-02-08T22:22:02.420Z,50.52
2023-02-08T22:24:30.454Z,51.16
2023-02-08T22:26:58.768Z,51.01
2023-02-08T22:29:27.010Z,53.49
2023-02-08T22:31:55.101Z,51.60
2023-02-08T22:34:23.221Z,49.35
2023-02-08T22:36:53.990Z,49.74
2023-02-08T22:39:22.297Z,49.33
2023-02-08T22:41:50.349Z,49.29
2023-02-08T22:44:18.324Z,47.79
2023-02-08T22:46:46.391Z,47.13
2023-02-08T22:49:14.608Z,48.50
2023-02-08T22:51:43.051Z,48.97
2023-02-08T22:54:11.091Z,49.39
2023-02-08T22:56:39.143Z,49.92
2023-02-08T22:59:07.381Z,50.01
2023-02-08T23:01:35.517Z,48.95
2023-02-08T23:04:04.086Z,49.61
2023-02-08T23:06:32.314Z,49.20
2023-02-08T23:09:00.561Z,49.81
2023-02-08T23:11:28.536Z,50.53
2023-02-08T23:13:56.772Z,49.85
2023-02-08T23:16:25.127Z,51.03
2023-02-08T23:18:53.317Z,49.37
2023-02-08T23:21:21.721Z,50.98
2023-02-08T23:23:50.276Z,48.50
2023-02-08T23:26:19.373Z,48.87
2023-02-08T23:28:50.142Z,47.07
2023-02-08T23:31:18.776Z,47.88
2023-02-08T23:33:47.018Z,48.53
2023-02-08T23:36:17.496Z,47.36
2023-02-08T23:38:45.878Z,47.46
2023-02-08T23:41:15.614Z,46.51
2023-02-08T23:43:43.996Z,48.01
2023-02-08T23:46:15.415Z,47.69
2023-02-08T23:48:44.153Z,46.62
2023-02-08T23:51:12.159Z,47.96
2023-02-08T23:53:40.057Z,46.60
2023-02-08T23:56:08.847Z,47.20
2023-02-08T23:58:36.892Z,46.95
